Time;durP1;ratioP1;P1;durP2;ratioP2;P2;SDS_P1;SDS_P2;PMS_P1;PMS_P2;Temp;Humidity;BMP_temperature;BMP_pressure;BME280_temperature;BME280_humidity;BME280_pressure;Samples;Min_cycle;Max_cycle;Signal;HPM_P1;HPM_P2
2022/07/23 00:00:15;;;;;;;4.57;3.80;;;;;;;14.29;100.00;101856.22;5072609;28;20082;-57
2022/07/23 00:02:40;;;;;;;4.10;3.55;;;;;;;14.31;100.00;101836.72;5072557;28;20115;-57
2022/07/23 00:05:06;;;;;;;6.03;3.60;;;;;;;14.39;100.00;101844.47;5072589;28;20112;-59
2022/07/23 00:07:32;;;;;;;5.47;3.75;;;;;;;14.44;100.00;101839.88;5071120;28;20029;-57
2022/07/23 00:09:57;;;;;;;4.22;3.50;;;;;;;14.23;100.00;101791.09;5072867;28;20086;-56
2022/07/23 00:12:22;;;;;;;3.20;2.90;;;;;;;14.51;100.00;101836.09;5072513;28;20041;-58
2022/07/23 00:14:48;;;;;;;5.00;3.20;;;;;;;14.15;100.00;101763.13;5072559;28;20046;-56
2022/07/23 00:17:13;;;;;;;3.50;3.15;;;;;;;14.52;100.00;101819.31;5072427;28;20115;-54
2022/07/23 00:19:38;;;;;;;3.95;3.17;;;;;;;14.18;100.00;101760.38;5071085;28;20060;-55
2022/07/23 00:22:04;;;;;;;5.78;3.55;;;;;;;14.42;100.00;101807.25;5072003;28;20032;-57
2022/07/23 00:24:29;;;;;;;3.85;3.45;;;;;;;14.11;100.00;101751.75;5071066;28;20447;-57
2022/07/23 00:26:54;;;;;;;6.78;3.80;;;;;;;14.20;100.00;101771.78;5072300;28;20039;-58
2022/07/23 00:29:20;;;;;;;5.63;4.03;;;;;;;14.43;100.00;101814.31;5072278;28;20471;-58
2022/07/23 00:31:45;;;;;;;4.28;3.80;;;;;;;14.06;100.00;101759.88;5072336;28;20087;-58
2022/07/23 00:34:10;;;;;;;5.93;3.83;;;;;;;14.37;100.00;101810.06;5072182;28;20115;-57
2022/07/23 00:36:36;;;;;;;4.28;3.67;;;;;;;13.97;100.00;101744.28;5072129;28;20108;-57
2022/07/23 00:39:01;;;;;;;5.78;3.78;;;;;;;13.96;100.00;101745.19;5072219;28;20028;-55
2022/07/23 00:41:26;;;;;;;6.28;4.13;;;;;;;13.96;100.00;101749.59;5072418;28;20028;-58
2022/07/23 00:43:52;;;;;;;4.25;3.95;;;;;;;13.90;100.00;101748.03;5072634;28;20503;-57
2022/07/23 00:46:21;;;;;;;7.22;4.38;;;;;;;14.22;100.00;101805.22;5076136;28;20377;-59
2022/07/23 00:48:46;;;;;;;4.95;4.05;;;;;;;14.19;100.00;101812.41;5076217;28;20028;-55
2022/07/23 00:51:11;;;;;;;6.35;3.92;;;;;;;13.88;100.00;101757.81;5076017;28;20028;-53
2022/07/23 00:53:37;;;;;;;5.70;4.18;;;;;;;14.16;100.00;101812.50;5076316;28;20047;-57
2022/07/23 00:56:02;;;;;;;4.22;3.83;;;;;;;14.08;100.00;101796.88;5076177;28;20040;-56
2022/07/23 00:58:27;;;;;;;4.35;4.00;;;;;;;13.73;100.00;101742.41;5074801;28;20036;-57
2022/07/23 01:00:53;;;;;;;4.43;3.83;;;;;;;14.08;100.00;101796.88;5075869;28;20037;-59
2022/07/23 01:03:18;;;;;;;6.60;3.78;;;;;;;13.74;100.00;101736.19;5075792;28;20033;-54
2022/07/23 01:05:44;;;;;;;5.63;3.97;;;;;;;13.77;100.00;101746.69;5075649;28;20028;-57
2022/07/23 01:08:09;;;;;;;5.00;4.32;;;;;;;13.91;100.00;101778.00;5075485;28;20029;-55
2022/07/23 01:10:34;;;;;;;7.30;4.50;;;;;;;13.58;100.00;101718.19;5074619;28;20115;-55
2022/07/23 01:13:02;;;;;;;7.63;4.43;;;;;;;13.96;100.00;101787.53;5075560;28;20039;-58
2022/07/23 01:15:28;;;;;;;5.00;4.10;;;;;;;13.59;100.00;101734.03;5075641;28;20040;-54
2022/07/23 01:17:53;;;;;;;7.03;4.63;;;;;;;13.92;100.00;101780.59;5074315;28;20037;-59
2022/07/23 01:20:19;;;;;;;8.60;4.70;;;;;;;13.83;100.00;101778.25;5075498;28;20395;-57
2022/07/23 01:22:45;;;;;;;6.10;4.32;;;;;;;13.94;100.00;101785.84;5073777;28;20127;-57
2022/07/23 01:25:11;;;;;;;5.00;4.15;;;;;;;13.89;100.00;101778.03;5057736;28;20028;-56
2022/07/23 01:27:36;;;;;;;7.15;4.70;;;;;;;13.62;100.00;101739.22;5075514;28;20060;-54
2022/07/23 01:30:03;;;;;;;7.00;4.72;;;;;;;13.53;100.00;101719.22;5075458;28;20033;-53
2022/07/23 01:32:28;;;;;;;6.53;4.78;;;;;;;13.81;100.00;101788.00;5075047;28;20506;-55
2022/07/23 01:34:53;;;;;;;8.13;4.60;;;;;;;13.70;100.00;101786.59;5075285;28;20049;-57
2022/07/23 01:37:19;;;;;;;5.15;4.70;;;;;;;13.66;100.00;101784.97;5073983;28;20032;-56
2022/07/23 01:39:44;;;;;;;8.10;4.65;;;;;;;13.67;100.00;101792.84;5075446;28;20028;-59
2022/07/23 01:42:09;;;;;;;7.07;4.88;;;;;;;13.63;100.00;101790.34;5075226;28;20032;-56
2022/07/23 01:44:35;;;;;;;7.50;5.28;;;;;;;13.57;100.00;101786.13;5074887;28;20033;-58
2022/07/23 01:47:00;;;;;;;7.57;4.90;;;;;;;13.21;100.00;101726.38;5075073;28;20446;-58
2022/07/23 01:49:25;;;;;;;7.20;5.15;;;;;;;13.28;100.00;101749.91;5073741;28;20434;-55
2022/07/23 01:52:00;;;;;;;9.73;5.88;;;;;;;13.47;100.00;101782.88;5074682;28;20395;-55
2022/07/23 01:54:26;;;;;;;6.30;5.45;;;;;;;13.45;100.00;101797.06;5074327;28;20541;-56
2022/07/23 01:56:51;;;;;;;6.20;5.60;;;;;;;;;;5074936;28;20165;-53
2022/07/23 01:59:17;;;;;;;8.63;5.60;;;;;;;13.01;nan;101733.97;5074881;28;20598;-57
2022/07/23 02:01:42;;;;;;;7.35;6.05;;;;;;;12.94;nan;101726.22;5074738;28;20028;-56
2022/07/23 02:04:07;;;;;;;7.18;5.68;;;;;;;12.94;nan;101731.50;5074612;28;20044;-56
2022/07/23 02:06:32;;;;;;;7.32;5.40;;;;;;;13.21;nan;101768.66;5074488;28;20452;-60
2022/07/23 02:08:58;;;;;;;6.95;5.60;;;;;;;13.29;nan;101787.81;5073519;28;20115;-56
2022/07/23 02:11:23;;;;;;;8.70;6.10;;;;;;;13.29;nan;101777.22;5074801;28;20044;-58
2022/07/23 02:13:48;;;;;;;8.35;5.78;;;;;;;12.95;nan;101721.78;5074452;28;20430;-58
2022/07/23 02:16:14;;;;;;;7.25;5.40;;;;;;;13.24;nan;101773.88;5074596;28;20028;-57
2022/07/23 02:18:39;;;;;;;6.80;6.10;;;;;;;12.89;nan;101736.03;5074466;28;20487;-55
2022/07/23 02:21:04;;;;;;;6.30;5.53;;;;;;;13.19;nan;101779.25;5073095;28;20073;-56
2022/07/23 02:23:30;;;;;;;9.43;5.45;;;;;;;13.13;nan;101776.81;5073909;28;20049;-55
2022/07/23 02:25:55;;;;;;;6.75;5.72;;;;;;;13.06;nan;101769.94;5074310;28;20522;-57
2022/07/23 02:28:20;;;;;;;7.47;6.30;;;;;;;12.77;nan;101719.66;5074112;28;20094;-58
2022/07/23 02:30:45;;;;;;;7.15;6.43;;;;;;;13.15;nan;101792.63;5072417;28;20083;-56
2022/07/23 02:33:11;;;;;;;8.82;5.88;;;;;;;13.13;nan;101784.75;5074035;28;20032;-55
2022/07/23 02:35:36;;;;;;;7.20;5.65;;;;;;;12.71;nan;101706.63;5073518;28;20123;-57
2022/07/23 02:38:01;;;;;;;7.13;6.13;;;;;;;13.15;nan;101788.22;5074091;28;20079;-54
2022/07/23 02:40:27;;;;;;;7.13;4.95;;;;;;;13.13;nan;101782.09;5073940;28;20181;-56
2022/07/23 02:42:52;;;;;;;7.70;5.85;;;;;;;12.73;nan;101724.16;5073753;28;20508;-56
2022/07/23 02:45:17;;;;;;;7.70;6.00;;;;;;;13.11;nan;101786.56;5073878;28;20032;-56
2022/07/23 02:47:43;;;;;;;7.78;5.80;;;;;;;12.88;nan;101741.34;5074010;28;20430;-58
2022/07/23 02:50:08;;;;;;;8.68;5.72;;;;;;;13.19;nan;101791.66;5072414;28;20064;-57
2022/07/23 02:52:34;;;;;;;6.40;5.40;;;;;;;12.81;nan;101730.09;5073509;28;20055;-56
2022/07/23 02:54:59;;;;;;;6.68;5.30;;;;;;;13.24;nan;101795.88;5073808;28;20037;-59
2022/07/23 02:57:24;;;;;;;5.50;5.00;;;;;;;12.92;nan;101732.44;5073517;28;20044;-58
2022/07/23 02:59:50;;;;;;;6.07;4.90;;;;;;;12.97;nan;101730.53;5073452;28;20036;-55
2022/07/23 03:02:15;;;;;;;5.65;5.13;;;;;;;13.30;nan;101786.91;5072135;28;20036;-55
2022/07/23 03:04:42;;;;;;;8.80;5.90;;;;;;;13.28;nan;101781.66;5073370;28;20043;-52
2022/07/23 03:07:07;;;;;;;9.68;6.13;;;;;;;13.28;nan;101781.66;5072619;28;20060;-58
2022/07/23 03:09:32;;;;;;;6.15;5.55;;;;;;;13.28;nan;101789.59;5072039;28;20063;-59
2022/07/23 03:11:58;;;;;;;8.25;5.25;;;;;;;13.26;nan;101794.06;5072382;28;20119;-55
2022/07/23 03:14:23;;;;;;;7.75;6.18;;;;;;;13.25;nan;101784.38;5073281;28;20044;-57
2022/07/23 03:16:49;;;;;;;6.57;5.65;;;;;;;13.22;nan;101776.53;5073365;28;20551;-55
2022/07/23 03:19:15;;;;;;;7.93;5.82;;;;;;;13.19;nan;101792.47;5073072;28;20123;-58
2022/07/23 03:21:40;;;;;;;7.95;6.22;;;;;;;12.89;nan;101751.91;5055018;28;20132;-58
2022/07/23 03:24:10;;;;;;;6.65;6.05;;;;;;;12.85;nan;101734.38;5071731;28;20139;-56
2022/07/23 03:26:36;;;;;;;9.18;6.53;;;;;;;12.77;nan;101715.25;5072889;28;20033;-56
2022/07/23 03:29:03;;;;;;;9.02;6.47;;;;;;;12.83;nan;101730.94;5073085;28;20035;-55
2022/07/23 03:31:29;;;;;;;9.32;6.63;;;;;;;13.02;nan;101770.06;5073009;28;20115;-53
2022/07/23 03:33:54;;;;;;;10.00;6.50;;;;;;;12.65;nan;101718.22;5071531;28;20107;-57
2022/07/23 03:36:19;;;;;;;7.47;6.63;;;;;;;12.97;nan;101780.75;5073040;28;20120;-53
2022/07/23 03:38:44;;;;;;;8.55;6.32;;;;;;;12.98;nan;101785.13;5072795;28;20054;-59
2022/07/23 03:41:10;;;;;;;10.00;6.40;;;;;;;12.64;nan;101734.97;5071633;28;20391;-54
2022/07/23 03:43:35;;;;;;;8.68;6.43;;;;;;;12.71;nan;101754.16;5072275;28;20547;-56
2022/07/23 03:46:00;;;;;;;7.72;6.90;;;;;;;12.55;nan;101732.56;5072656;28;20086;-57
2022/07/23 03:48:26;;;;;;;6.93;6.22;;;;;;;12.53;nan;101737.03;5072616;28;20119;-56
2022/07/23 03:50:51;;;;;;;14.40;6.75;;;;;;;12.85;nan;101803.09;5073063;28;20032;-55
2022/07/23 03:53:16;;;;;;;7.93;7.00;;;;;;;12.77;nan;101793.63;5072401;28;20036;-57
2022/07/23 03:55:42;;;;;;;8.75;7.03;;;;;;;12.71;nan;101783.22;5072273;28;20032;-57
2022/07/23 03:58:08;;;;;;;8.23;7.13;;;;;;;12.33;nan;101728.75;5071253;28;20033;-56
2022/07/23 04:00:33;;;;;;;8.45;6.90;;;;;;;12.52;nan;101760.84;5071218;28;20039;-56
2022/07/23 04:02:58;;;;;;;8.18;7.40;;;;;;;12.54;nan;101765.19;5072359;28;20029;-57
2022/07/23 04:05:24;;;;;;;10.38;7.10;;;;;;;12.83;nan;101814.59;5071082;28;20647;-59
2022/07/23 04:07:49;;;;;;;9.80;7.35;;;;;;;12.58;nan;101771.25;5072177;28;20081;-59
2022/07/23 04:10:15;;;;;;;10.45;7.07;;;;;;;12.80;nan;101804.13;5072494;28;20394;-58
2022/07/23 04:12:40;;;;;;;8.10;6.20;;;;;;;12.89;nan;101815.31;5070719;28;20393;-56
2022/07/23 04:15:07;;;;;;;10.05;6.95;;;;;;;12.57;nan;101759.81;5072366;28;20044;-58
2022/07/23 04:17:33;;;;;;;7.60;6.90;;;;;;;12.69;nan;101780.63;5072199;28;20090;-53
2022/07/23 04:19:58;;;;;;;9.60;7.25;;;;;;;12.87;nan;101813.63;5072084;28;20472;-58
2022/07/23 04:22:23;;;;;;;9.50;7.60;;;;;;;12.54;nan;101749.34;5070469;28;20053;-57
2022/07/23 04:24:50;;;;;;;11.40;7.80;;;;;;;12.80;nan;101789.13;5072508;28;20074;-58
2022/07/23 04:27:15;;;;;;;8.43;7.63;;;;;;;12.65;nan;101757.84;5070849;28;20037;-57
2022/07/23 04:29:41;;;;;;;11.55;7.03;;;;;;;12.69;nan;101759.50;5072043;28;20105;-57
2022/07/23 04:32:06;;;;;;;8.45;7.45;;;;;;;13.05;nan;101805.19;5071757;28;20036;-57
2022/07/23 04:34:31;;;;;;;9.88;7.88;;;;;;;13.24;nan;101827.63;5071937;28;20553;-57
2022/07/23 04:36:57;;;;;;;8.00;7.15;;;;;;;13.35;nan;101819.38;5071855;28;20036;-57
2022/07/23 04:39:22;;;;;;;8.73;6.53;;;;;;;13.34;nan;101809.69;5071954;28;20068;-57
2022/07/23 04:41:47;;;;;;;8.98;6.80;;;;;;;13.47;nan;101805.81;5071839;28;20451;-50
2022/07/23 04:44:13;;;;;;;9.40;7.15;;;;;;;13.20;nan;101758.97;5071725;28;20037;-57
2022/07/23 04:46:38;;;;;;;12.38;7.90;;;;;;;13.49;nan;101807.50;5071622;28;20032;-58
2022/07/23 04:49:03;;;;;;;9.95;7.25;;;;;;;13.51;nan;101816.22;5071702;28;20029;-54
2022/07/23 04:51:29;;;;;;;9.75;6.45;;;;;;;13.46;nan;101820.81;5071962;28;20463;-56
2022/07/23 04:53:54;;;;;;;8.60;7.28;;;;;;;13.44;nan;101811.19;5070729;28;20055;-54
2022/07/23 04:56:20;;;;;;;9.73;7.38;;;;;;;13.44;nan;101822.63;5072008;28;20120;-55
2022/07/23 04:58:45;;;;;;;8.95;7.50;;;;;;;13.40;nan;101818.31;5071919;28;20123;-54
2022/07/23 05:01:10;;;;;;;8.57;7.20;;;;;;;13.35;nan;101811.44;5071833;28;20032;-58
2022/07/23 05:03:36;;;;;;;12.25;7.47;;;;;;;13.09;nan;101758.44;5070073;28;20044;-57
2022/07/23 05:06:02;;;;;;;9.45;7.55;;;;;;;13.19;nan;101776.63;5071719;28;20032;-58
2022/07/23 05:08:28;;;;;;;8.80;7.32;;;;;;;13.30;nan;101789.56;5071423;28;20039;-56
2022/07/23 05:10:53;;;;;;;10.32;7.25;;;;;;;13.18;nan;101771.38;5071825;28;20399;-57
2022/07/23 05:13:19;;;;;;;8.90;8.00;;;;;;;13.10;nan;101760.19;5071641;28;20032;-55
2022/07/23 05:15:45;;;;;;;8.75;7.50;;;;;;;13.19;nan;101757.28;5071485;28;20025;-58
2022/07/23 05:18:10;;;;;;;8.25;7.45;;;;;;;13.57;nan;101822.28;5071342;28;20044;-53
2022/07/23 05:20:36;;;;;;;8.85;7.32;;;;;;;13.57;nan;101817.88;5071257;28;20034;-55
2022/07/23 05:23:01;;;;;;;8.68;7.00;;;;;;;13.43;nan;101778.56;5069700;28;20052;-57
2022/07/23 05:25:27;;;;;;;11.75;6.63;;;;;;;13.77;nan;101827.84;5070264;28;20048;-57
2022/07/23 05:27:52;;;;;;;8.23;7.45;;;;;;;13.65;nan;101792.03;5071465;28;20032;-53
2022/07/23 05:30:17;;;;;;;8.20;6.65;;;;;;;13.87;nan;101810.75;5072696;28;20392;-57
2022/07/23 05:32:43;;;;;;;7.35;6.65;;;;;;;13.84;nan;101787.91;5075009;28;20036;-57
2022/07/23 05:35:09;;;;;;;8.32;7.50;;;;;;;14.16;nan;101825.75;5075034;28;20241;-58
2022/07/23 05:37:34;;;;;;;8.77;7.13;;;;;;;13.95;nan;101769.91;5074049;28;20016;-58
2022/07/23 05:40:07;;;;;;;10.30;6.05;;;;;;;14.05;nan;101760.78;5075104;28;20029;-59
2022/07/23 05:42:32;;;;;;;7.43;5.88;;;;;;;14.51;nan;101818.44;5073769;28;20114;-57
2022/07/23 05:44:57;;;;;;;8.25;6.43;;;;;;;14.35;nan;101764.25;5075017;28;20435;-58
2022/07/23 05:47:23;;;;;;;6.68;5.70;;;;;;;14.79;nan;101826.34;5074845;28;20360;-55
2022/07/23 05:49:48;;;;;;;7.00;4.82;;;;;;;14.56;nan;101783.84;5074741;28;20041;-58
2022/07/23 05:52:13;;;;;;;5.88;4.40;;;;;;;14.60;nan;101780.16;5075015;28;20046;-57
2022/07/23 05:54:39;;;;;;;9.45;4.13;;;;;;;14.79;nan;101783.94;5074516;28;20048;-58
2022/07/23 05:57:04;;;;;;;6.47;3.55;;;;;;;15.13;nan;101837.50;5074543;28;20028;-58
2022/07/23 05:59:29;;;;;;;7.13;4.07;;;;;;;14.97;nan;101801.81;5074647;28;20123;-55
2022/07/23 06:01:55;;;;;;;6.03;3.58;;;;;;;15.01;nan;101792.84;5073117;28;20032;-55
2022/07/23 06:04:20;;;;;;;5.43;3.90;;;;;;;15.37;nan;101858.75;5074435;28;20039;-58
2022/07/23 06:06:45;;;;;;;3.78;3.40;;;;;;;15.52;nan;101847.63;5074716;28;20036;-54
2022/07/23 06:09:13;;;;;;;3.35;3.05;;;;;;;15.52;nan;101831.72;5074699;28;20060;-57
2022/07/23 06:11:39;;;;;;;4.88;3.13;;;;;;;15.71;nan;101862.81;5074484;28;20036;-58
2022/07/23 06:14:04;;;;;;;5.40;3.20;;;;;;;15.82;nan;101866.84;5074506;28;20078;-55
2022/07/23 06:16:29;;;;;;;3.88;3.13;;;;;;;15.72;nan;101840.66;5074205;28;20029;-57
2022/07/23 06:18:55;;;;;;;5.65;2.65;;;;;;;16.02;nan;101873.16;5074481;28;20033;-58
2022/07/23 06:21:20;;;;;;;5.88;2.70;;;;;;;16.11;nan;101885.19;5074455;28;20468;-57
2022/07/23 06:23:45;;;;;;;3.70;3.38;;;;;;;16.11;nan;101875.41;5074001;28;20533;-59
2022/07/23 06:26:11;;;;;;;5.32;2.83;;;;;;;16.31;nan;101875.50;5073962;28;20024;-58
2022/07/23 06:28:36;;;;;;;3.40;2.85;;;;;;;16.11;nan;101821.47;5072895;28;20120;-59
2022/07/23 06:31:01;;;;;;;3.75;2.92;;;;;;;16.51;nan;101860.56;5074110;28;20036;-59
2022/07/23 06:33:27;;;;;;;2.60;2.10;;;;;;;16.58;nan;101870.06;5074023;28;20039;-58
2022/07/23 06:35:52;;;;;;;5.07;2.33;;;;;;;16.65;nan;101855.56;5074116;28;20032;-58
2022/07/23 06:38:17;;;;;;;5.90;2.50;;;;;;;16.48;nan;101815.50;5074273;28;20032;-58
2022/07/23 06:40:43;;;;;;;3.28;2.10;;;;;;;16.49;nan;101806.63;5073883;28;20028;-58
2022/07/23 06:43:09;;;;;;;2.35;2.15;;;;;;;16.97;nan;101871.03;5072669;28;20035;-59
2022/07/23 06:45:34;;;;;;;3.15;1.55;;;;;;;17.07;nan;101883.03;5072652;28;20112;-58
2022/07/23 06:48:02;;;;;;;5.28;2.30;;;;;;;16.77;nan;101809.88;5073745;28;20028;-60
2022/07/23 06:50:27;;;;;;;4.47;1.95;;;;;;;17.27;nan;101876.84;5073928;28;20447;-59
2022/07/23 06:52:52;;;;;;;2.08;1.73;;;;;;;17.37;nan;101888.81;5073775;28;20417;-58
2022/07/23 06:55:18;;;;;;;3.67;2.28;;;;;;;17.49;nan;101898.91;5073827;28;20036;-58
2022/07/23 06:57:43;;;;;;;4.93;2.08;;;;;;;17.54;nan;101899.59;5073726;28;20037;-58
2022/07/23 07:00:09;;;;;;;2.35;1.58;;;;;;;17.60;nan;101895.84;5073652;28;20142;-59
2022/07/23 07:02:34;;;;;;;3.13;2.10;;;;;;;17.44;nan;101867.19;5072025;28;20119;-59
2022/07/23 07:05:00;;;;;;;3.63;1.92;;;;;;;17.57;nan;101850.72;5073672;28;20063;-59
2022/07/23 07:07:25;;;;;;;5.32;3.30;;;;;;;17.71;nan;101882.88;5073399;28;20432;-55
2022/07/23 07:09:50;;;;;;;5.63;2.50;;;;;;;17.66;nan;101859.13;5072668;28;20376;-58
2022/07/23 07:12:16;;;;;;;1.58;1.48;;;;;;;17.93;nan;101919.13;5055372;28;20040;-57
2022/07/23 07:14:41;;;;;;;3.38;1.42;;;;;;;17.71;nan;101864.25;5072071;28;20043;-58
2022/07/23 07:17:06;;;;;;;3.38;1.80;;;;;;;17.92;nan;101893.41;5073059;28;20487;-59
2022/07/23 07:19:32;;;;;;;5.25;2.38;;;;;;;17.88;nan;101869.66;5073331;28;20036;-59
2022/07/23 07:21:57;;;;;;;3.55;1.85;;;;;;;18.29;nan;101907.69;5073066;28;20063;-59
2022/07/23 07:24:22;;;;;;;2.28;1.60;;;;;;;18.31;nan;101895.13;5071878;28;20106;-59
2022/07/23 07:26:47;;;;;;;4.38;1.73;;;;;;;18.51;nan;101927.06;5072907;28;20472;-59
2022/07/23 07:29:13;;;;;;;5.22;1.70;;;;;;;18.53;nan;101928.72;5072908;28;20037;-59
2022/07/23 07:31:38;;;;;;;2.95;2.10;;;;;;;18.61;nan;101925.69;5072812;28;20059;-59
2022/07/23 07:34:03;;;;;;;4.65;2.53;;;;;;;18.50;nan;101896.03;5072718;28;20036;-60
2022/07/23 07:36:29;;;;;;;8.00;3.28;;;;;;;18.91;nan;101923.34;5072821;28;20063;-59
2022/07/23 07:38:54;;;;;;;3.10;2.45;;;;;;;19.25;nan;101928.69;5073054;28;20078;-60
2022/07/23 07:41:23;;;;;;;3.58;2.80;;;;;;;19.17;nan;101871.31;5072837;28;20408;-59
2022/07/23 07:43:49;;;;;;;2.95;2.50;;;;;;;19.69;nan;101899.69;5072649;28;20037;-60
2022/07/23 07:46:14;;;;;;;5.50;2.80;;;;;;;20.42;nan;101943.81;5072372;28;20478;-59
2022/07/23 07:48:39;;;;;;;3.05;2.20;;;;;;;20.69;nan;101889.59;5071633;28;20400;-58
2022/07/23 07:51:05;;;;;;;5.15;2.47;;;;;;;21.16;nan;101908.25;5072570;28;20488;-58
2022/07/23 07:53:30;;;;;;;2.15;1.67;;;;;;;21.71;nan;101958.53;5054611;28;20032;-59
2022/07/23 07:55:56;;;;;;;1.77;1.40;;;;;;;21.81;nan;101962.34;5071676;28;20068;-59
2022/07/23 07:58:21;;;;;;;4.10;1.88;;;;;;;22.26;nan;101951.47;5072582;28;20029;-59
2022/07/23 08:00:46;;;;;;;2.00;1.80;;;;;;;22.75;nan;101953.69;5072033;28;20468;-59
2022/07/23 08:03:12;;;;;;;3.75;2.33;;;;;;;22.95;nan;101975.59;5072609;28;20051;-59
2022/07/23 08:05:37;;;;;;;3.22;2.00;;;;;;;23.29;nan;101967.97;5072648;28;20056;-59
2022/07/23 08:08:03;;;;;;;4.45;2.45;;;;;;;23.64;nan;101969.16;5072453;28;20068;-59
2022/07/23 08:10:28;;;;;;;5.78;2.63;;;;;;;23.94;nan;101966.97;5072287;28;20071;-59
2022/07/23 08:12:56;;;;;;;3.63;2.17;;;;;;;24.15;nan;101934.19;5072408;28;20059;-59
2022/07/23 08:15:22;;;;;;;3.33;1.65;;;;;;;24.30;nan;101922.31;5072232;28;20119;-60
2022/07/23 08:17:48;;;;;;;2.65;1.65;;;;;;;24.61;nan;101975.63;5071914;28;20032;-59
2022/07/23 08:20:18;;;;;;;3.83;1.33;;;;;;;24.32;nan;101948.13;5071258;28;20044;-60
2022/07/23 08:22:54;;;;;;;2.95;2.08;;;;;;;24.22;nan;101995.53;5072305;28;20049;-58
2022/07/23 08:25:27;;;;;;;3.30;1.88;;;;;;;24.33;nan;102002.81;5072341;28;20422;-59
2022/07/23 08:27:53;;;;;;;5.43;1.67;;;;;;;24.16;nan;101989.72;5072243;28;20065;-60
2022/07/23 08:30:19;;;;;;;2.05;1.63;;;;;;;23.84;nan;101944.41;5072313;28;20071;-57
2022/07/23 08:32:56;;;;;;;3.58;1.40;;;;;;;24.53;nan;102002.25;5071084;28;20033;-59
2022/07/23 08:35:25;;;;;;;3.17;1.67;;;;;;;24.39;nan;101992.47;5063749;28;20043;-59
2022/07/23 08:37:50;;;;;;;3.78;2.08;;;;;;;24.52;nan;102004.06;5052019;28;20040;-58
2022/07/23 08:40:16;;;;;;;2.75;1.75;;;;;;;25.04;nan;101997.59;5052083;28;20389;-59
2022/07/23 08:42:41;;;;;;;2.10;1.83;;;;;;;25.11;nan;101963.81;5067427;28;20037;-59
2022/07/23 08:45:08;;;;;;;2.10;1.67;;;;;;;24.58;nan;101955.16;5067673;28;20411;-59
2022/07/23 08:47:35;;;;;;;4.10;1.33;;;;;;;24.49;nan;101961.22;5067433;28;20033;-60
2022/07/23 08:50:00;;;;;;;2.65;1.40;;;;;;;24.67;nan;101996.72;5067461;28;20079;-59
2022/07/23 08:52:26;;;;;;;2.45;1.20;;;;;;;24.66;nan;101976.16;5067506;28;20041;-58
2022/07/23 08:54:52;;;;;;;2.75;1.58;;;;;;;25.08;nan;102013.41;5067188;28;20419;-59
2022/07/23 08:57:18;;;;;;;2.40;1.90;;;;;;;25.46;nan;102010.50;5067111;28;20469;-59
2022/07/23 08:59:43;;;;;;;6.00;1.48;;;;;;;25.67;nan;102014.28;5051648;28;20090;-59
2022/07/23 09:02:08;;;;;;;2.45;2.03;;;;;;;25.05;nan;101970.53;5067377;28;20037;-59
2022/07/23 09:04:34;;;;;;;3.42;2.20;;;;;;;24.39;nan;101970.09;5050559;28;20037;-58
2022/07/23 09:07:01;;;;;;;3.65;1.73;;;;;;;24.45;nan;102018.09;5055890;28;20040;-59
2022/07/23 09:09:29;;;;;;;3.55;2.13;;;;;;;24.27;nan;102012.19;5056228;28;20123;-60
2022/07/23 09:12:06;;;;;;;3.40;1.88;;;;;;;24.62;nan;101958.50;5055700;28;20086;-60
2022/07/23 09:14:47;;;;;;;2.42;1.77;;;;;;;25.31;nan;102016.19;5071209;28;20396;-60
2022/07/23 09:17:16;;;;;;;3.78;2.20;;;;;;;25.31;nan;102017.06;5055662;28;20059;-59
2022/07/23 09:19:42;;;;;;;3.72;1.70;;;;;;;25.32;nan;102010.69;5055552;28;20423;-59
2022/07/23 09:22:18;;;;;;;4.50;1.45;;;;;;;25.75;nan;102016.38;5054902;28;20052;-59
2022/07/23 09:25:04;;;;;;;5.10;1.75;;;;;;;26.02;nan;102013.38;5070925;28;20029;-59
2022/07/23 09:27:57;;;;;;;2.63;1.85;;;;;;;26.39;nan;102024.81;5055451;28;20196;-58
2022/07/23 09:30:27;;;;;;;2.15;1.50;;;;;;;26.51;nan;102022.00;5053204;28;20044;-60
2022/07/23 09:33:07;;;;;;;3.85;1.48;;;;;;;25.90;nan;102019.72;5055273;28;20025;-60
2022/07/23 09:35:45;;;;;;;2.83;1.83;;;;;;;25.65;nan;102010.88;5055191;28;20055;-60
2022/07/23 09:38:11;;;;;;;2.28;1.42;;;;;;;25.91;nan;102011.53;5054987;28;20040;-58
2022/07/23 09:40:37;;;;;;;2.60;1.60;;;;;;;25.86;nan;102019.09;5054824;28;20026;-59
2022/07/23 09:43:02;;;;;;;1.75;1.63;;;;;;;25.74;nan;102009.28;5054793;28;20120;-59
2022/07/23 09:45:27;;;;;;;1.80;1.45;;;;;;;25.31;nan;101965.84;5055038;28;20037;-59
2022/07/23 09:48:13;;;;;;;5.88;1.85;;;;;;;25.67;nan;102013.44;5053869;28;20037;-55
2022/07/23 09:50:39;;;;;;;2.53;1.67;;;;;;;25.49;nan;101959.09;5070236;28;20391;-60
2022/07/23 09:53:04;;;;;;;2.30;2.10;;;;;;;25.72;nan;101968.06;5054550;28;20487;-59
2022/07/23 09:55:36;;;;;;;1.50;1.33;;;;;;;25.93;nan;101997.91;5053669;28;20041;-58
2022/07/23 09:58:02;;;;;;;3.90;1.90;;;;;;;25.29;nan;101932.78;5054991;28;20029;-59
2022/07/23 10:00:28;;;;;;;4.80;2.38;;;;;;;26.01;nan;102028.69;5070313;28;20028;-59
2022/07/23 10:02:54;;;;;;;3.67;1.92;;;;;;;26.30;nan;101977.84;5070025;28;20040;-60
2022/07/23 10:05:20;;;;;;;4.05;1.80;;;;;;;27.12;nan;102004.34;5054674;28;20052;-60
2022/07/23 10:07:46;;;;;;;1.92;1.63;;;;;;;27.63;nan;101977.50;5053263;28;20126;-61
2022/07/23 10:10:13;;;;;;;2.63;1.55;;;;;;;27.77;nan;101985.25;5054713;28;20044;-59
2022/07/23 10:15:06;;;;;;;2.35;1.63;;;;;;;27.10;nan;101992.81;5054374;28;20056;-59
2022/07/23 10:17:31;;;;;;;2.90;1.30;;;;;;;27.32;nan;102027.03;5054202;28;20033;-58
2022/07/23 10:19:57;;;;;;;1.77;1.42;;;;;;;26.78;nan;102008.09;5054356;28;20298;-59
2022/07/23 10:22:26;;;;;;;1.88;1.67;;;;;;;26.16;nan;101997.84;5069410;28;20377;-60
2022/07/23 10:25:07;;;;;;;3.25;1.98;;;;;;;26.12;nan;102017.91;5054559;28;20029;-59
2022/07/23 10:27:42;;;;;;;3.28;1.85;;;;;;;25.83;nan;102000.50;5054463;28;20072;-60
2022/07/23 10:30:14;;;;;;;2.75;1.83;;;;;;;25.86;nan;102020.97;5054152;28;20060;-60
2022/07/23 10:33:03;;;;;;;2.42;1.52;;;;;;;26.43;nan;102016.38;5054173;28;20036;-61
2022/07/23 10:35:43;;;;;;;2.22;1.40;;;;;;;27.01;nan;102017.91;5054052;28;20025;-60
2022/07/23 10:38:34;;;;;;;2.92;1.70;;;;;;;27.73;nan;102016.28;5053867;28;20496;-59
2022/07/23 10:41:01;;;;;;;2.22;1.70;;;;;;;28.41;nan;102012.13;5063956;28;20045;-59
2022/07/23 10:43:28;;;;;;;5.10;1.65;;;;;;;28.76;nan;101966.50;5053372;28;20029;-60
2022/07/23 10:45:54;;;;;;;3.00;1.80;;;;;;;29.55;nan;102022.38;5053523;28;20040;-59
2022/07/23 10:48:22;;;;;;;4.18;1.95;;;;;;;28.60;nan;101989.66;5068952;28;20037;-58
2022/07/23 10:51:08;;;;;;;5.22;2.10;;;;;;;27.41;nan;102014.59;5068491;28;20036;-60
2022/07/23 10:53:52;;;;;;;3.08;2.47;;;;;;;26.01;nan;102020.59;5053452;28;20036;-59
2022/07/23 10:56:49;;;;;;;2.80;2.13;;;;;;;25.65;nan;102001.91;5053101;28;20033;-58
2022/07/23 10:59:14;;;;;;;2.72;2.30;;;;;;;25.95;nan;101953.63;5052939;28;20468;-58
2022/07/23 11:01:40;;;;;;;4.22;2.30;;;;;;;27.00;nan;101962.13;5051646;28;20033;-60
2022/07/23 11:04:07;;;;;;;3.45;2.13;;;;;;;27.97;nan;102018.69;5052187;28;20032;-60
2022/07/23 11:06:48;;;;;;;3.13;2.25;;;;;;;28.86;nan;102018.00;5052325;28;20472;-59
2022/07/23 11:09:28;;;;;;;3.30;1.77;;;;;;;28.80;nan;102013.13;5052369;28;20060;-58
2022/07/23 11:12:24;;;;;;;2.05;1.83;;;;;;;27.50;nan;102008.41;5051063;28;20397;-59
2022/07/23 11:15:13;;;;;;;4.32;2.60;;;;;;;27.05;nan;101996.91;5053046;28;20033;-59
2022/07/23 11:17:53;;;;;;;4.43;2.30;;;;;;;28.08;nan;102009.69;5052412;28;20032;-60
2022/07/23 11:20:21;;;;;;;4.78;2.20;;;;;;;28.49;nan;102023.13;5052359;28;20112;-59
2022/07/23 11:22:50;;;;;;;3.10;2.80;;;;;;;28.65;nan;102007.25;5051123;28;20049;-58
2022/07/23 11:25:21;;;;;;;3.97;2.60;;;;;;;29.16;nan;102007.03;5051911;28;20078;-59
2022/07/23 11:27:46;;;;;;;3.17;1.80;;;;;;;29.58;nan;102005.81;5050444;28;20029;-58
2022/07/23 11:30:27;;;;;;;3.67;2.20;;;;;;;30.29;nan;102011.66;5066885;28;20519;-60
2022/07/23 11:33:13;;;;;;;;;;;;;;;29.41;nan;102011.94;5051931;28;20040;-60
2022/07/23 11:35:43;;;;;;;3.08;1.80;;;;;;;28.64;nan;101948.63;5048023;28;19966;-59
2022/07/23 11:38:27;;;;;;;3.65;1.88;;;;;;;28.14;nan;102001.88;5052239;28;20025;-60
2022/07/23 11:40:54;;;;;;;4.28;2.15;;;;;;;26.93;nan;102003.31;5052231;28;20091;-59